White Rock, New Mexico
Current Conditions -  °F | °C
As of 1:15 PM on Sunday 23 Nov 2014 (Local Time) from KLAM Reporting Station
Clear Clear  
Wind Chill: 29°   Ceiling: Unl
Heat Index: 38°   Visibility: 10mi
Dew Point: 15°   Wind: 17mph
Humidity: 38%   Direction: 280°W
Pressure: 29.76"   Gusts: 30mph
Location:  35.8375°N, 106.349°W
Report Text: KLAM 232015Z AUTO 28015G26KT 250V320 10SM CLR 04/M10 A2976 RMK AO2 T00351097
Loading
Personal Weather Stations






























Interactive Weather Map New forecast layout! Learn more

10-Day Weather Forecast

Advertisements
Track Severe Weather on mobile